Aviation Digital Data Service (ADDS)

Output produced by METARs form (0756 UTC 18 January 2018)
found at http://aviationweather.gov/adds/metars/
 
KFAY 180530Z 1806/1906 34011KT 4SM -SN BR SCT015 BKN040 
     FM180700 33010KT P6SM SCT060 
     FM181600 29008KT P6SM SKC